createdAt,value
2024-02-15T00:01:23.856Z,101307.97
2024-02-15T00:05:38.419Z,101302.50
2024-02-15T00:09:50.630Z,101306.03
2024-02-15T00:14:02.455Z,101293.28
2024-02-15T00:18:14.449Z,101293.28
2024-02-15T00:22:26.676Z,101311.44
2024-02-15T00:26:39.479Z,101316.59
2024-02-15T00:30:51.480Z,101318.38
2024-02-15T00:35:03.632Z,101282.50
2024-02-15T00:39:16.197Z,101312.63
2024-02-15T00:43:28.376Z,101308.06
2024-02-15T00:47:43.576Z,101304.00
2024-02-15T00:51:55.528Z,101295.41
2024-02-15T00:56:07.313Z,101310.00
2024-02-15T01:00:19.423Z,101310.00
2024-02-15T01:04:31.199Z,101314.13
2024-02-15T01:08:43.088Z,101281.53
2024-02-15T01:12:54.868Z,101300.47
2024-02-15T01:17:06.730Z,101289.91
2024-02-15T01:21:18.556Z,101289.84
2024-02-15T01:25:31.425Z,101316.66
2024-02-15T01:29:43.966Z,101286.56
2024-02-15T01:33:55.975Z,101318.91
2024-02-15T01:38:07.967Z,101308.19
2024-02-15T01:42:20.106Z,101303.78
2024-02-15T01:46:32.723Z,101304.59
2024-02-15T01:50:44.874Z,101263.94
2024-02-15T01:54:58.466Z,101296.72
2024-02-15T01:59:13.337Z,101257.78
2024-02-15T02:03:25.414Z,101288.25
2024-02-15T02:07:38.341Z,101271.97
2024-02-15T02:11:52.040Z,101269.31
2024-02-15T02:16:03.879Z,101270.16
2024-02-15T02:20:15.806Z,101272.41
2024-02-15T02:24:28.874Z,101276.44
2024-02-15T02:28:40.708Z,101264.81
2024-02-15T02:32:52.482Z,101246.50
2024-02-15T02:37:06.619Z,101267.06
2024-02-15T02:41:20.526Z,101217.34
2024-02-15T02:45:32.516Z,101243.91
2024-02-15T02:49:44.322Z,101248.63
2024-02-15T02:53:56.115Z,101249.56
2024-02-15T02:58:08.857Z,101251.44
2024-02-15T03:02:20.572Z,101246.50
2024-02-15T03:06:34.986Z,101246.09
2024-02-15T03:10:46.739Z,101254.41
2024-02-15T03:14:58.467Z,101255.25
2024-02-15T03:19:13.019Z,101237.75
2024-02-15T03:23:24.829Z,101235.38
2024-02-15T03:27:38.457Z,101245.13
2024-02-15T03:31:50.450Z,101246.41
2024-02-15T03:36:02.238Z,101223.56
2024-02-15T03:40:15.628Z,101241.94
2024-02-15T03:44:27.436Z,101254.59
2024-02-15T03:48:39.688Z,101246.94
2024-02-15T03:52:51.980Z,101248.22
2024-02-15T03:57:04.885Z,101232.03
2024-02-15T04:01:16.740Z,101218.50
2024-02-15T04:05:28.729Z,101234.13
2024-02-15T04:09:40.542Z,101221.69
2024-02-15T04:13:52.423Z,101208.00
2024-02-15T04:18:04.541Z,101222.00
2024-02-15T04:22:17.528Z,101221.84
2024-02-15T04:26:31.259Z,101221.03
2024-02-15T04:30:43.054Z,101217.66
2024-02-15T04:34:54.951Z,101206.28
2024-02-15T04:39:07.491Z,101195.13
2024-02-15T04:43:19.504Z,101193.91
2024-02-15T04:47:31.671Z,101180.75
2024-02-15T04:51:45.040Z,101213.59
2024-02-15T04:55:56.809Z,101193.25
2024-02-15T05:00:14.516Z,101208.22
2024-02-15T05:04:26.671Z,101199.78
2024-02-15T05:08:43.457Z,101191.91
2024-02-15T05:12:56.756Z,101182.41
2024-02-15T05:17:12.586Z,101190.63
2024-02-15T05:21:24.256Z,101196.25
2024-02-15T05:25:36.622Z,101192.38
2024-02-15T05:29:56.560Z,101190.28
2024-02-15T05:34:09.712Z,101202.59
2024-02-15T05:38:21.825Z,101203.28
2024-02-15T05:42:33.562Z,101202.09
2024-02-15T05:46:45.277Z,101193.56
2024-02-15T05:50:58.540Z,101192.50
2024-02-15T05:55:10.350Z,101187.94
2024-02-15T05:59:22.498Z,101189.13
2024-02-15T06:03:38.894Z,101161.56
2024-02-15T06:07:51.006Z,101117.81
2024-02-15T06:12:02.874Z,101065.50
2024-02-15T06:16:14.613Z,101087.72
2024-02-15T06:20:28.178Z,101097.06
2024-02-15T06:24:40.535Z,101083.56
2024-02-15T06:29:10.715Z,101105.09
2024-02-15T06:33:42.316Z,101129.19
2024-02-15T06:38:12.882Z,101134.56
2024-02-15T06:42:24.660Z,101139.13
2024-02-15T06:46:36.595Z,101150.75
2024-02-15T06:50:51.395Z,101144.75
2024-02-15T06:55:03.262Z,101148.78
2024-02-15T06:59:15.416Z,101156.66
2024-02-15T07:03:30.642Z,101163.59
2024-02-15T07:07:44.084Z,101128.88
2024-02-15T07:11:56.339Z,101123.00
2024-02-15T07:16:09.038Z,101129.81
2024-02-15T07:20:21.776Z,101133.19
2024-02-15T07:24:33.595Z,101136.63
2024-02-15T07:28:47.314Z,101143.91
2024-02-15T07:32:59.305Z,101153.19
2024-02-15T07:37:12.387Z,101158.34
2024-02-15T07:41:28.142Z,101149.28
2024-02-15T07:45:40.017Z,101148.16
2024-02-15T07:49:52.110Z,101136.13
2024-02-15T07:54:04.638Z,101137.38
2024-02-15T07:58:19.463Z,101134.53
2024-02-15T08:02:33.730Z,101144.28
2024-02-15T08:06:45.983Z,101158.13
2024-02-15T08:10:57.884Z,101182.66
2024-02-15T08:15:13.301Z,101184.09
2024-02-15T08:19:25.696Z,101186.78
2024-02-15T08:23:37.824Z,101192.31
2024-02-15T08:27:51.479Z,101159.06
2024-02-15T08:32:04.722Z,101172.47
2024-02-15T08:36:16.694Z,101180.50
2024-02-15T08:40:28.870Z,101189.28
2024-02-15T08:44:40.640Z,101200.47
2024-02-15T08:48:52.725Z,101175.22
2024-02-15T08:53:07.829Z,101164.34
2024-02-15T08:57:20.457Z,101147.19
2024-02-15T09:01:32.360Z,101152.38
2024-02-15T09:05:44.422Z,101158.13
2024-02-15T09:09:56.473Z,101166.66
2024-02-15T09:14:10.910Z,101171.00
2024-02-15T09:18:24.244Z,101148.34
2024-02-15T09:22:38.858Z,101158.22
2024-02-15T09:26:50.571Z,101143.03
2024-02-15T09:31:02.930Z,101144.09
2024-02-15T09:35:15.203Z,101112.16
2024-02-15T09:39:27.167Z,101122.97
2024-02-15T09:43:39.323Z,101145.44
2024-02-15T09:47:51.154Z,101142.59
2024-02-15T09:52:04.796Z,101154.91
2024-02-15T09:56:16.749Z,101146.13
2024-02-15T10:00:28.438Z,101147.91
2024-02-15T10:04:44.174Z,101132.63
2024-02-15T10:09:31.630Z,101135.94
2024-02-15T10:13:45.891Z,101142.50
2024-02-15T10:18:01.921Z,101140.88
2024-02-15T10:22:15.846Z,101136.53
2024-02-15T10:26:29.400Z,101138.06
2024-02-15T10:30:47.106Z,101150.53
2024-02-15T10:34:59.350Z,101139.16
2024-02-15T10:39:21.567Z,101149.28
2024-02-15T10:43:42.912Z,101140.13
2024-02-15T10:47:55.796Z,101137.88
2024-02-15T10:52:11.882Z,101138.38
2024-02-15T10:56:31.662Z,101139.22
2024-02-15T11:00:47.536Z,101133.00
2024-02-15T11:05:10.007Z,101121.59
2024-02-15T11:09:23.310Z,101114.84
2024-02-15T11:13:34.995Z,101135.25
2024-02-15T11:17:55.526Z,101126.00
2024-02-15T11:22:12.569Z,101115.56
2024-02-15T11:26:48.346Z,101119.81
2024-02-15T11:31:00.417Z,101115.81
2024-02-15T11:35:16.783Z,101108.28
2024-02-15T11:39:43.218Z,101107.81
2024-02-15T11:43:59.102Z,101104.41
2024-02-15T11:48:13.293Z,101094.78
2024-02-15T11:52:25.424Z,101102.16
2024-02-15T11:56:50.563Z,101076.03
2024-02-15T12:01:21.189Z,101082.22
2024-02-15T12:05:51.346Z,101079.47
2024-02-15T12:10:21.536Z,101067.00
2024-02-15T12:14:51.940Z,101074.31
2024-02-15T12:19:04.768Z,101071.88
2024-02-15T12:23:19.465Z,101066.88
2024-02-15T12:27:31.532Z,101052.38
2024-02-15T12:31:45.601Z,101024.16
2024-02-15T12:36:07.180Z,101043.34
2024-02-15T12:40:19.811Z,101033.59
2024-02-15T12:44:34.256Z,101025.63
2024-02-15T12:48:46.111Z,101023.66
2024-02-15T12:53:03.221Z,101008.16
2024-02-15T12:57:17.174Z,101018.19
2024-02-15T13:01:30.385Z,101010.69
2024-02-15T13:05:42.800Z,101008.44
2024-02-15T13:09:54.667Z,101012.28
2024-02-15T13:14:06.401Z,101002.75
2024-02-15T13:18:19.053Z,101011.47
2024-02-15T13:22:32.169Z,100995.63
2024-02-15T13:26:45.138Z,100993.13
2024-02-15T13:30:57.769Z,100992.38
2024-02-15T13:35:19.336Z,100988.28
2024-02-15T13:39:34.746Z,100986.41
2024-02-15T13:43:46.439Z,100973.91
2024-02-15T13:47:58.323Z,100974.97
2024-02-15T13:52:12.322Z,100962.56
2024-02-15T13:56:24.074Z,100957.41
2024-02-15T14:00:36.185Z,100954.44
2024-02-15T14:04:47.990Z,100935.66
2024-02-15T14:08:59.706Z,100928.34
2024-02-15T14:13:12.804Z,100920.00
2024-02-15T14:17:24.774Z,100913.03
2024-02-15T14:21:39.822Z,100903.50
2024-02-15T14:25:54.387Z,100895.13
2024-02-15T14:30:25.157Z,100909.13
2024-02-15T14:34:38.157Z,100896.31
2024-02-15T14:38:50.413Z,100890.78
2024-02-15T14:43:03.220Z,100899.06
2024-02-15T14:47:14.938Z,100898.72
2024-02-15T14:51:27.471Z,100894.78
2024-02-15T14:55:40.995Z,100901.34
2024-02-15T14:59:52.818Z,100909.31
2024-02-15T15:04:07.209Z,100871.00
2024-02-15T15:08:37.539Z,100872.69
2024-02-15T15:12:49.262Z,100883.88
2024-02-15T15:17:03.344Z,100882.50
2024-02-15T15:21:19.591Z,100880.84
2024-02-15T15:25:31.955Z,100861.22
2024-02-15T15:29:44.301Z,100863.63
2024-02-15T15:33:57.405Z,100869.66
2024-02-15T15:38:09.181Z,100867.41
2024-02-15T15:42:20.921Z,100859.22
2024-02-15T15:46:34.500Z,100859.69
2024-02-15T15:50:46.274Z,100872.19
2024-02-15T15:54:58.374Z,100860.88
2024-02-15T15:59:10.048Z,100849.50
2024-02-15T16:03:24.259Z,100848.69
2024-02-15T16:07:36.449Z,100843.28
2024-02-15T16:11:50.072Z,100824.13
2024-02-15T16:16:03.522Z,100848.06
2024-02-15T16:20:15.357Z,100836.03
2024-02-15T16:24:27.224Z,100839.81
2024-02-15T16:28:46.870Z,100821.78
2024-02-15T16:32:59.578Z,100821.22
2024-02-15T16:37:11.385Z,100824.19
2024-02-15T16:41:24.778Z,100819.78
2024-02-15T16:45:37.469Z,100805.38
2024-02-15T16:49:49.250Z,100792.47
2024-02-15T16:54:02.286Z,100819.34
2024-02-15T16:58:14.016Z,100827.06
2024-02-15T17:02:25.698Z,100813.88
2024-02-15T17:06:37.749Z,100822.00
2024-02-15T17:10:49.706Z,100780.56
2024-02-15T17:15:01.584Z,100785.16
2024-02-15T17:19:13.556Z,100781.06
2024-02-15T17:23:25.487Z,100811.69
2024-02-15T17:27:37.147Z,100808.66
2024-02-15T17:31:51.004Z,100823.81
2024-02-15T17:36:03.714Z,100797.19
2024-02-15T17:40:15.616Z,100801.25
2024-02-15T17:44:28.855Z,100780.22
2024-02-15T17:48:43.655Z,100791.13
2024-02-15T17:52:55.402Z,100801.84
2024-02-15T17:57:07.289Z,100798.50
2024-02-15T18:01:19.689Z,100802.16
2024-02-15T18:05:32.412Z,100794.72
2024-02-15T18:09:44.143Z,100812.56
2024-02-15T18:13:56.450Z,100812.56
2024-02-15T18:18:08.232Z,100821.16
2024-02-15T18:22:20.000Z,100780.19
2024-02-15T18:26:31.695Z,100801.41
2024-02-15T18:30:44.054Z,100806.94
2024-02-15T18:34:55.994Z,100803.91
2024-02-15T18:39:10.466Z,100793.94
2024-02-15T18:43:22.213Z,100789.81
2024-02-15T18:47:37.362Z,100794.97
2024-02-15T18:51:49.170Z,100781.06
2024-02-15T18:56:01.075Z,100767.25
2024-02-15T19:00:23.598Z,100767.81
2024-02-15T19:04:43.657Z,100742.34
2024-02-15T19:08:55.458Z,100741.38
2024-02-15T19:13:07.310Z,100758.31
2024-02-15T19:17:19.922Z,100739.16
2024-02-15T19:21:31.848Z,100758.22
2024-02-15T19:25:45.683Z,100758.56
2024-02-15T19:29:57.491Z,100737.53
2024-02-15T19:34:09.828Z,100756.59
2024-02-15T19:38:21.579Z,100758.47
2024-02-15T19:42:33.638Z,100753.47
2024-02-15T19:46:45.380Z,100759.78
2024-02-15T19:50:57.573Z,100759.59
2024-02-15T19:55:09.577Z,100751.97
2024-02-15T19:59:21.350Z,100744.84
2024-02-15T20:03:33.696Z,100755.31
2024-02-15T20:07:45.941Z,100730.94
2024-02-15T20:11:58.514Z,100720.28
2024-02-15T20:16:16.037Z,100751.78
2024-02-15T20:20:28.020Z,100736.31
2024-02-15T20:24:40.105Z,100702.09
2024-02-15T20:28:53.105Z,100723.06
2024-02-15T20:33:06.659Z,100707.38
2024-02-15T20:37:18.410Z,100705.59
2024-02-15T20:41:31.051Z,100705.59
2024-02-15T20:45:43.083Z,100710.03
2024-02-15T20:49:54.792Z,100693.63
2024-02-15T20:54:06.627Z,100689.06
2024-02-15T20:58:18.343Z,100683.78
2024-02-15T21:02:32.544Z,100680.19
2024-02-15T21:06:44.738Z,100678.19
2024-02-15T21:11:00.988Z,100683.50
2024-02-15T21:15:14.518Z,100657.25
2024-02-15T21:19:26.308Z,100668.88
2024-02-15T21:23:38.019Z,100662.19
2024-02-15T21:27:51.945Z,100655.31
2024-02-15T21:32:04.154Z,100651.94
2024-02-15T21:36:17.764Z,100675.84
2024-02-15T21:40:29.718Z,100659.22
2024-02-15T21:44:41.436Z,100659.69
2024-02-15T21:48:53.980Z,100651.50
2024-02-15T21:53:05.964Z,100657.38
2024-02-15T21:57:17.773Z,100649.88
2024-02-15T22:01:31.688Z,100653.16
2024-02-15T22:05:43.631Z,100674.34
2024-02-15T22:09:55.671Z,100637.72
2024-02-15T22:14:07.974Z,100665.09
2024-02-15T22:18:19.813Z,100654.72
2024-02-15T22:22:32.515Z,100646.28
2024-02-15T22:26:44.379Z,100663.25
2024-02-15T22:30:56.158Z,100651.44
2024-02-15T22:35:08.152Z,100655.78
2024-02-15T22:39:19.980Z,100661.75
2024-02-15T22:43:34.342Z,100664.34
2024-02-15T22:47:46.603Z,100664.47
2024-02-15T22:51:58.924Z,100653.34
2024-02-15T22:56:13.237Z,100672.31
2024-02-15T23:00:27.437Z,100628.41
2024-02-15T23:04:39.490Z,100660.38
2024-02-15T23:08:51.425Z,100659.31
2024-02-15T23:13:04.162Z,100647.84
2024-02-15T23:17:16.376Z,100668.41
2024-02-15T23:21:30.940Z,100662.78
2024-02-15T23:25:45.549Z,100635.19
2024-02-15T23:29:57.353Z,100656.63
2024-02-15T23:34:09.595Z,100675.69
2024-02-15T23:38:40.098Z,100660.00
2024-02-15T23:42:53.367Z,100656.97
2024-02-15T23:47:06.151Z,100670.31
2024-02-15T23:51:17.911Z,100664.47
2024-02-15T23:55:33.397Z,100638.97
2024-02-15T23:59:45.232Z,100656.75
